createdAt,value
2022-08-10T00:01:39.692Z,14.09
2022-08-10T00:04:07.785Z,14.14
2022-08-10T00:06:35.946Z,14.22
2022-08-10T00:09:05.425Z,14.27
2022-08-10T00:11:33.249Z,14.36
2022-08-10T00:14:02.053Z,14.44
2022-08-10T00:16:29.874Z,14.51
2022-08-10T00:18:57.646Z,14.52
2022-08-10T00:21:27.141Z,14.58
2022-08-10T00:23:55.227Z,14.53
2022-08-10T00:26:24.394Z,14.41
2022-08-10T00:28:52.669Z,14.32
2022-08-10T00:31:20.555Z,14.25
2022-08-10T00:33:48.299Z,14.21
2022-08-10T00:36:16.641Z,14.01
2022-08-10T00:38:44.514Z,13.98
2022-08-10T00:41:12.359Z,13.82
2022-08-10T00:43:41.874Z,13.75
2022-08-10T00:46:09.794Z,13.71
2022-08-10T00:48:37.749Z,13.76
2022-08-10T00:51:06.353Z,13.80
2022-08-10T00:53:34.298Z,13.86
2022-08-10T00:57:09.993Z,13.89
2022-08-10T00:58:51.959Z,13.94
2022-08-10T01:02:09.436Z,13.84
2022-08-10T01:04:57.860Z,13.68
2022-08-10T01:07:14.813Z,13.43
2022-08-10T01:09:56.971Z,13.31
2022-08-10T01:12:38.312Z,13.25
2022-08-10T01:15:20.015Z,13.25
2022-08-10T01:17:54.888Z,13.23
2022-08-10T01:20:31.230Z,13.21
2022-08-10T01:23:39.013Z,13.33
2022-08-10T01:26:31.555Z,13.44
2022-08-10T01:29:18.986Z,13.47
2022-08-10T01:31:54.311Z,13.53
2022-08-10T01:34:26.528Z,13.51
2022-08-10T01:36:59.546Z,13.35
2022-08-10T01:39:31.313Z,13.22
2022-08-10T01:42:01.237Z,13.14
2022-08-10T01:44:33.362Z,13.10
2022-08-10T01:47:24.743Z,13.03
2022-08-10T01:50:03.217Z,13.08
2022-08-10T01:52:33.179Z,13.13
2022-08-10T01:55:01.234Z,13.19
2022-08-10T01:57:32.304Z,13.07
2022-08-10T02:00:03.500Z,12.83
2022-08-10T02:02:36.025Z,12.70
2022-08-10T02:05:06.681Z,12.63
2022-08-10T02:07:37.883Z,12.44
2022-08-10T02:10:12.181Z,12.48
2022-08-10T02:12:41.924Z,12.41
2022-08-10T02:15:15.593Z,12.33
2022-08-10T02:17:59.322Z,12.33
2022-08-10T02:20:34.577Z,12.29
2022-08-10T02:23:08.615Z,12.18
2022-08-10T02:25:41.673Z,12.13
2022-08-10T02:28:30.575Z,12.04
2022-08-10T02:31:04.267Z,12.01
2022-08-10T02:33:38.368Z,12.03
2022-08-10T02:36:09.861Z,11.99
2022-08-10T02:38:57.479Z,12.02
2022-08-10T02:45:13.001Z,12.09
2022-08-10T02:45:26.453Z,12.12
2022-08-10T02:47:22.978Z,12.19
2022-08-10T02:49:58.458Z,12.23
2022-08-10T02:52:36.507Z,12.33
2022-08-10T02:55:18.279Z,12.41
2022-08-10T02:58:13.842Z,12.45
2022-08-10T03:00:43.373Z,12.54
2022-08-10T03:03:16.475Z,12.54
2022-08-10T03:05:48.139Z,12.53
2022-08-10T03:08:20.477Z,12.55
2022-08-10T03:10:50.329Z,12.58
2022-08-10T03:13:20.130Z,12.58
2022-08-10T03:15:49.151Z,12.49
2022-08-10T03:18:19.535Z,12.33
2022-08-10T03:20:50.620Z,12.28
2022-08-10T03:23:20.517Z,12.19
2022-08-10T03:25:53.615Z,12.15
2022-08-10T03:28:24.496Z,12.07
2022-08-10T03:30:53.790Z,11.95
2022-08-10T03:33:23.236Z,11.77
2022-08-10T03:36:42.600Z,11.61
2022-08-10T03:38:41.461Z,11.47
2022-08-10T03:41:16.210Z,11.32
2022-08-10T03:43:47.746Z,11.32
2022-08-10T03:46:19.360Z,11.20
2022-08-10T03:48:51.155Z,11.20
2022-08-10T03:51:22.810Z,11.22
2022-08-10T03:54:04.472Z,11.15
2022-08-10T03:56:40.339Z,11.13
2022-08-10T03:59:15.122Z,11.09
2022-08-10T04:02:46.580Z,11.24
2022-08-10T04:04:32.064Z,11.32
2022-08-10T04:07:03.441Z,11.24
2022-08-10T04:09:55.668Z,11.25
2022-08-10T04:12:21.598Z,11.16
2022-08-10T04:14:52.479Z,11.20
2022-08-10T04:18:01.397Z,11.24
2022-08-10T04:20:18.454Z,11.31
2022-08-10T04:22:50.877Z,11.31
2022-08-10T04:25:20.283Z,11.45
2022-08-10T04:27:49.390Z,11.54
2022-08-10T04:30:17.337Z,11.66
2022-08-10T04:32:48.037Z,11.72
2022-08-10T04:35:19.872Z,11.82
2022-08-10T04:37:50.382Z,11.97
2022-08-10T04:40:28.638Z,12.09
2022-08-10T04:43:09.071Z,12.20
2022-08-10T04:45:49.471Z,12.31
2022-08-10T04:48:40.577Z,12.42
2022-08-10T04:51:17.303Z,12.58
2022-08-10T04:54:02.797Z,12.70
2022-08-10T04:56:35.382Z,12.86
2022-08-10T04:59:03.588Z,12.96
2022-08-10T05:02:22.059Z,13.10
2022-08-10T05:04:37.948Z,13.25
2022-08-10T05:07:08.589Z,13.40
2022-08-10T05:10:00.986Z,13.54
2022-08-10T05:12:27.712Z,13.74
2022-08-10T05:14:56.329Z,13.94
2022-08-10T05:17:25.306Z,14.12
2022-08-10T05:20:02.137Z,14.22
2022-08-10T05:22:34.548Z,14.41
2022-08-10T05:25:04.159Z,14.58
2022-08-10T05:27:31.918Z,14.66
2022-08-10T05:30:01.197Z,14.76
2022-08-10T05:32:31.077Z,14.98
2022-08-10T05:34:59.116Z,15.05
2022-08-10T05:38:09.148Z,15.17
2022-08-10T05:40:19.933Z,15.21
2022-08-10T05:42:48.469Z,15.33
2022-08-10T05:45:22.174Z,15.43
2022-08-10T05:48:42.183Z,15.49
2022-08-10T05:50:38.319Z,15.57
2022-08-10T05:54:01.309Z,15.70
2022-08-10T05:55:56.360Z,15.79
2022-08-10T05:58:24.482Z,15.82
2022-08-10T06:00:55.268Z,15.74
2022-08-10T06:03:28.666Z,15.83
2022-08-10T06:05:59.773Z,15.89
2022-08-10T06:08:31.657Z,15.98
2022-08-10T06:12:26.869Z,15.99
2022-08-10T06:14:13.804Z,16.03
2022-08-10T06:16:45.071Z,15.95
2022-08-10T06:19:15.065Z,15.98
2022-08-10T06:21:55.311Z,16.14
2022-08-10T06:24:31.183Z,16.23
2022-08-10T06:27:00.913Z,16.38
2022-08-10T06:29:33.086Z,16.57
2022-08-10T06:32:02.763Z,16.87
2022-08-10T06:34:33.673Z,17.00
2022-08-10T06:37:04.438Z,17.08
2022-08-10T06:39:34.988Z,17.15
2022-08-10T06:42:16.416Z,17.14
2022-08-10T06:44:53.436Z,17.19
2022-08-10T06:47:24.426Z,17.29
2022-08-10T06:49:59.890Z,17.42
2022-08-10T06:52:29.827Z,17.54
2022-08-10T06:55:00.382Z,17.65
2022-08-10T06:57:34.227Z,17.74
2022-08-10T07:00:08.069Z,17.80
2022-08-10T07:02:42.634Z,17.87
2022-08-10T07:05:16.059Z,17.94
2022-08-10T07:07:45.279Z,18.06
2022-08-10T07:10:17.266Z,18.17
2022-08-10T07:12:47.744Z,18.22
2022-08-10T07:15:17.309Z,18.16
2022-08-10T07:17:47.193Z,18.37
2022-08-10T07:20:17.942Z,18.36
2022-08-10T07:23:54.743Z,18.25
2022-08-10T07:25:38.449Z,18.47
2022-08-10T07:28:09.293Z,18.61
2022-08-10T07:30:39.080Z,18.76
2022-08-10T07:33:08.513Z,18.92
2022-08-10T07:35:42.595Z,19.01
2022-08-10T07:38:18.765Z,19.15
2022-08-10T07:40:50.450Z,19.08
2022-08-10T07:43:22.910Z,19.10
2022-08-10T07:45:51.353Z,19.31
2022-08-10T07:48:23.930Z,19.62
2022-08-10T07:50:55.115Z,19.59
2022-08-10T07:53:27.406Z,19.63
2022-08-10T07:56:05.099Z,19.62
2022-08-10T07:58:52.493Z,19.77
2022-08-10T08:01:21.658Z,19.65
2022-08-10T08:04:06.037Z,19.92
2022-08-10T08:06:39.084Z,20.12
2022-08-10T08:09:07.470Z,20.30
2022-08-10T08:11:37.421Z,20.53
2022-08-10T08:14:08.541Z,20.39
2022-08-10T08:16:40.000Z,20.68
2022-08-10T08:24:10.407Z,21.19
2022-08-10T08:24:45.827Z,21.21
2022-08-10T08:27:16.742Z,21.41
2022-08-10T08:29:48.050Z,21.33
2022-08-10T08:32:17.693Z,21.59
2022-08-10T08:34:47.379Z,21.67
2022-08-10T08:37:18.838Z,21.79
2022-08-10T08:40:11.594Z,21.79
2022-08-10T08:43:06.532Z,21.21
2022-08-10T08:46:01.563Z,20.73
2022-08-10T08:48:46.662Z,20.77
2022-08-10T08:52:17.072Z,21.17
2022-08-10T08:54:23.780Z,21.81
2022-08-10T08:57:03.858Z,22.26
2022-08-10T08:59:52.063Z,22.35
2022-08-10T09:02:40.364Z,22.67
2022-08-10T09:05:27.798Z,22.95
2022-08-10T09:08:41.482Z,23.29
2022-08-10T09:11:24.928Z,23.47
2022-08-10T09:14:01.329Z,23.67
2022-08-10T09:16:36.264Z,23.40
2022-08-10T09:19:35.006Z,23.02
2022-08-10T09:22:17.331Z,22.77
2022-08-10T09:24:53.816Z,22.68
2022-08-10T09:27:23.875Z,22.53
2022-08-10T09:29:55.786Z,22.25
2022-08-10T09:36:13.789Z,21.93
2022-08-10T09:36:24.755Z,21.11
2022-08-10T09:38:25.546Z,21.47
2022-08-10T09:41:04.190Z,21.26
2022-08-10T09:43:48.987Z,21.34
2022-08-10T09:46:29.042Z,21.27
2022-08-10T09:49:06.715Z,21.79
2022-08-10T09:51:48.078Z,22.14
2022-08-10T09:54:30.965Z,22.69
2022-08-10T09:57:44.166Z,23.00
2022-08-10T10:00:09.090Z,23.59
2022-08-10T10:02:47.200Z,23.80
2022-08-10T10:05:31.854Z,24.34
2022-08-10T10:08:08.642Z,24.65
2022-08-10T10:10:46.643Z,24.80
2022-08-10T10:13:41.528Z,25.02
2022-08-10T10:16:23.222Z,25.33
2022-08-10T10:19:02.650Z,25.42
2022-08-10T10:21:55.567Z,25.55
2022-08-10T10:24:36.795Z,25.76
2022-08-10T10:27:19.810Z,26.06
2022-08-10T10:29:56.972Z,26.06
2022-08-10T10:32:37.624Z,26.34
2022-08-10T10:35:16.044Z,26.23
2022-08-10T10:38:01.755Z,25.82
2022-08-10T10:40:44.866Z,25.36
2022-08-10T10:43:27.096Z,25.05
2022-08-10T10:46:04.455Z,25.53
2022-08-10T10:48:41.209Z,25.80
2022-08-10T10:51:17.619Z,25.87
2022-08-10T10:53:53.591Z,25.82
2022-08-10T10:56:32.098Z,25.64
2022-08-10T10:59:53.995Z,25.63
2022-08-10T11:02:07.457Z,25.34
2022-08-10T11:04:41.613Z,25.22
2022-08-10T11:07:21.930Z,25.58
2022-08-10T11:10:05.480Z,25.43
2022-08-10T11:12:54.102Z,25.27
2022-08-10T11:15:28.020Z,25.07
2022-08-10T11:18:02.477Z,24.65
2022-08-10T11:20:39.866Z,24.08
2022-08-10T11:23:21.213Z,24.54
2022-08-10T11:25:59.673Z,25.32
2022-08-10T11:28:36.883Z,25.92
2022-08-10T11:31:10.751Z,26.45
2022-08-10T11:34:11.218Z,26.27
2022-08-10T11:36:42.829Z,25.96
2022-08-10T11:39:17.237Z,25.63
2022-08-10T11:42:11.594Z,25.39
2022-08-10T11:44:49.296Z,25.87
2022-08-10T11:47:21.128Z,26.50
2022-08-10T11:49:54.637Z,26.86
2022-08-10T11:52:32.596Z,27.38
2022-08-10T11:55:10.840Z,27.77
2022-08-10T11:57:54.900Z,27.82
2022-08-10T12:00:34.904Z,27.97
2022-08-10T12:03:07.007Z,27.67
2022-08-10T12:05:53.792Z,27.88
2022-08-10T12:10:03.548Z,27.58
2022-08-10T12:11:24.579Z,28.14
2022-08-10T12:14:19.706Z,27.74
2022-08-10T12:16:52.355Z,27.32
2022-08-10T12:19:28.521Z,26.90
2022-08-10T12:22:05.803Z,26.62
2022-08-10T12:24:38.922Z,26.27
2022-08-10T12:27:13.233Z,25.84
2022-08-10T12:29:47.265Z,25.76
2022-08-10T12:32:25.895Z,26.29
2022-08-10T12:35:04.433Z,26.04
2022-08-10T12:37:39.562Z,26.75
2022-08-10T12:43:15.256Z,28.46
2022-08-10T12:46:06.939Z,28.88
2022-08-10T12:48:42.909Z,28.71
2022-08-10T12:51:15.764Z,28.81
2022-08-10T12:53:51.144Z,27.77
2022-08-10T12:56:25.421Z,27.15
2022-08-10T12:58:58.910Z,26.76
2022-08-10T13:02:10.119Z,26.45
2022-08-10T13:04:30.636Z,26.91
2022-08-10T13:07:01.155Z,27.47
2022-08-10T13:09:29.148Z,28.07
2022-08-10T13:12:38.989Z,28.01
2022-08-10T13:14:54.561Z,27.33
2022-08-10T13:17:32.285Z,27.24
2022-08-10T13:20:15.927Z,26.77
2022-08-10T13:22:47.826Z,26.39
2022-08-10T13:25:21.172Z,26.25
2022-08-10T13:28:01.273Z,26.17
2022-08-10T13:30:41.643Z,25.77
2022-08-10T13:33:12.040Z,25.29
2022-08-10T13:35:45.090Z,24.84
2022-08-10T13:38:16.214Z,24.52
2022-08-10T13:40:48.626Z,24.98
2022-08-10T13:43:18.256Z,25.56
2022-08-10T13:45:50.093Z,26.05
2022-08-10T13:48:21.775Z,26.11
2022-08-10T13:50:53.303Z,26.16
2022-08-10T13:53:23.009Z,27.03
2022-08-10T13:55:56.474Z,27.32
2022-08-10T13:58:27.899Z,26.43
2022-08-10T14:00:57.001Z,27.08
2022-08-10T14:03:26.761Z,27.32
2022-08-10T14:05:58.518Z,26.99
2022-08-10T14:08:30.185Z,26.80
2022-08-10T14:11:08.806Z,26.32
2022-08-10T14:13:43.661Z,26.04
2022-08-10T14:16:12.833Z,25.31
2022-08-10T14:18:44.872Z,25.38
2022-08-10T14:21:14.763Z,25.73
2022-08-10T14:23:53.112Z,26.23
2022-08-10T14:26:24.724Z,26.89
2022-08-10T14:28:56.354Z,27.22
2022-08-10T14:31:29.984Z,26.98
2022-08-10T14:34:00.257Z,27.26
2022-08-10T14:36:37.816Z,27.20
2022-08-10T14:39:07.072Z,27.15
2022-08-10T14:42:03.261Z,26.55
2022-08-10T14:44:28.504Z,26.27
2022-08-10T14:46:59.421Z,26.62
2022-08-10T14:49:29.423Z,26.81
2022-08-10T14:52:26.873Z,27.32
2022-08-10T14:54:57.987Z,27.41
2022-08-10T14:58:17.251Z,27.63
2022-08-10T15:00:37.873Z,27.99
2022-08-10T15:03:49.404Z,27.88
2022-08-10T15:05:59.049Z,28.13
2022-08-10T15:08:37.025Z,28.21
2022-08-10T15:11:06.063Z,27.53
2022-08-10T15:13:35.496Z,27.02
2022-08-10T15:16:13.864Z,26.99
2022-08-10T15:18:57.988Z,27.00
2022-08-10T15:21:42.916Z,27.24
2022-08-10T15:24:39.795Z,27.64
2022-08-10T15:27:10.485Z,28.21
2022-08-10T15:29:57.044Z,28.19
2022-08-10T15:32:52.278Z,28.03
2022-08-10T15:35:41.999Z,28.15
2022-08-10T15:38:11.354Z,28.45
2022-08-10T15:40:52.601Z,28.59
2022-08-10T15:43:26.694Z,28.40
2022-08-10T15:46:01.726Z,27.82
2022-08-10T15:48:33.477Z,28.43
2022-08-10T15:51:05.694Z,28.85
2022-08-10T15:53:49.210Z,28.64
2022-08-10T15:56:28.159Z,28.48
2022-08-10T15:59:08.265Z,28.97
2022-08-10T16:02:13.291Z,28.94
2022-08-10T16:04:37.230Z,28.97
2022-08-10T16:07:09.848Z,28.68
2022-08-10T16:10:24.331Z,28.39
2022-08-10T16:12:37.769Z,27.90
2022-08-10T16:15:10.603Z,27.58
2022-08-10T16:17:55.440Z,27.35
2022-08-10T16:20:31.097Z,27.07
2022-08-10T16:23:03.684Z,26.81
2022-08-10T16:25:48.393Z,26.50
2022-08-10T16:28:29.422Z,26.13
2022-08-10T16:31:00.034Z,25.39
2022-08-10T16:33:53.644Z,25.31
2022-08-10T16:36:22.453Z,25.12
2022-08-10T16:38:53.298Z,24.96
2022-08-10T16:42:00.547Z,24.43
2022-08-10T16:44:17.930Z,24.26
2022-08-10T16:46:47.438Z,24.04
2022-08-10T16:49:19.024Z,24.15
2022-08-10T16:51:49.060Z,24.00
2022-08-10T16:54:26.343Z,23.73
2022-08-10T16:57:01.735Z,23.37
2022-08-10T16:59:34.991Z,23.17
2022-08-10T17:02:04.121Z,23.01
2022-08-10T17:04:34.829Z,22.90
2022-08-10T17:07:07.229Z,22.63
2022-08-10T17:09:38.450Z,22.61
2022-08-10T17:12:10.717Z,22.61
2022-08-10T17:14:42.408Z,22.58
2022-08-10T17:17:15.026Z,22.87
2022-08-10T17:19:45.882Z,22.84
2022-08-10T17:22:15.838Z,22.42
2022-08-10T17:24:47.349Z,21.96
2022-08-10T17:28:05.072Z,21.98
2022-08-10T17:30:15.675Z,21.80
2022-08-10T17:32:50.559Z,21.66
2022-08-10T17:35:23.914Z,21.53
2022-08-10T17:37:57.429Z,21.52
2022-08-10T17:40:28.443Z,21.32
2022-08-10T17:42:58.065Z,21.17
2022-08-10T17:45:46.693Z,21.13
2022-08-10T17:48:19.020Z,20.97
2022-08-10T17:50:50.640Z,20.91
2022-08-10T17:53:23.357Z,20.76
2022-08-10T17:55:56.581Z,20.81
2022-08-10T17:58:27.594Z,20.85
2022-08-10T18:01:40.783Z,20.91
2022-08-10T18:03:53.061Z,20.81
2022-08-10T18:06:22.789Z,20.75
2022-08-10T18:08:57.788Z,20.76
2022-08-10T18:11:29.546Z,20.69
2022-08-10T18:14:01.622Z,20.66
2022-08-10T18:16:31.161Z,20.61
2022-08-10T18:19:08.752Z,20.54
2022-08-10T18:21:41.441Z,20.42
2022-08-10T18:24:16.300Z,20.40
2022-08-10T18:26:46.770Z,20.39
2022-08-10T18:29:18.896Z,20.41
2022-08-10T18:31:55.112Z,20.30
2022-08-10T18:34:25.491Z,20.33
2022-08-10T18:36:54.966Z,20.15
2022-08-10T18:39:26.926Z,20.20
2022-08-10T18:42:05.524Z,20.06
2022-08-10T18:44:37.023Z,19.89
2022-08-10T18:47:13.187Z,19.77
2022-08-10T18:49:54.679Z,19.72
2022-08-10T18:52:27.045Z,19.72
2022-08-10T18:55:04.870Z,19.65
2022-08-10T18:57:59.146Z,19.62
2022-08-10T19:00:34.308Z,19.59
2022-08-10T19:03:32.558Z,19.56
2022-08-10T19:06:17.827Z,19.53
2022-08-10T19:08:57.068Z,19.52
2022-08-10T19:11:38.302Z,19.49
2022-08-10T19:14:14.729Z,19.38
2022-08-10T19:16:50.244Z,19.28
2022-08-10T19:19:34.113Z,19.18
2022-08-10T19:22:05.830Z,19.15
2022-08-10T19:24:49.091Z,19.08
2022-08-10T19:27:40.126Z,19.03
2022-08-10T19:30:13.376Z,18.97
2022-08-10T19:32:55.898Z,18.98
2022-08-10T19:35:34.525Z,18.91
2022-08-10T19:38:33.186Z,18.86
2022-08-10T19:41:10.348Z,18.77
2022-08-10T19:44:00.251Z,18.71
2022-08-10T19:46:40.140Z,18.69
2022-08-10T19:49:18.474Z,18.68
2022-08-10T19:51:56.450Z,18.69
2022-08-10T19:54:31.992Z,18.71
2022-08-10T19:57:08.512Z,18.71
2022-08-10T20:00:16.346Z,18.72
2022-08-10T20:02:48.097Z,18.68
2022-08-10T20:05:26.959Z,18.76
2022-08-10T20:08:03.548Z,18.76
2022-08-10T20:10:38.449Z,18.70
2022-08-10T20:13:26.709Z,18.61
2022-08-10T20:15:59.062Z,18.63
2022-08-10T20:18:31.706Z,18.61
2022-08-10T20:21:04.391Z,18.56
2022-08-10T20:23:36.917Z,18.41
2022-08-10T20:26:11.841Z,18.49
2022-08-10T20:28:43.326Z,18.60
2022-08-10T20:31:17.596Z,18.51
2022-08-10T20:34:00.902Z,18.50
2022-08-10T20:36:33.182Z,18.40
2022-08-10T20:39:17.557Z,18.47
2022-08-10T20:42:01.101Z,18.39
2022-08-10T20:44:41.947Z,18.32
2022-08-10T20:47:14.624Z,18.38
2022-08-10T20:49:51.624Z,18.32
2022-08-10T20:52:21.731Z,18.18
2022-08-10T20:54:55.058Z,18.17
2022-08-10T20:58:04.740Z,18.16
2022-08-10T21:00:25.689Z,18.11
2022-08-10T21:03:33.819Z,18.10
2022-08-10T21:06:35.991Z,18.01
2022-08-10T21:09:22.170Z,17.90
2022-08-10T21:12:16.352Z,17.83
2022-08-10T21:14:54.428Z,17.87
2022-08-10T21:17:44.534Z,17.78
2022-08-10T21:20:30.770Z,17.79
2022-08-10T21:23:05.178Z,17.79
2022-08-10T21:25:43.372Z,17.75
2022-08-10T21:28:31.218Z,17.62
2022-08-10T21:34:12.579Z,17.72
2022-08-10T21:36:47.531Z,17.54
2022-08-10T21:39:21.894Z,17.40
2022-08-10T21:42:37.707Z,17.33
2022-08-10T21:45:58.113Z,17.33
2022-08-10T21:48:57.171Z,17.25
2022-08-10T21:52:04.097Z,17.22
2022-08-10T21:54:58.814Z,17.04
2022-08-10T21:57:48.953Z,17.10
2022-08-10T22:00:36.532Z,16.99
2022-08-10T22:03:24.281Z,16.79
2022-08-10T22:06:12.917Z,16.73
2022-08-10T22:31:28.639Z,17.70
2022-08-10T23:11:17.395Z,15.70
2022-08-10T23:13:48.254Z,15.54
2022-08-10T23:16:37.854Z,15.54
2022-08-10T23:19:09.874Z,15.60
2022-08-10T23:22:04.120Z,15.60
2022-08-10T23:24:37.475Z,15.57
2022-08-10T23:27:12.406Z,15.57
2022-08-10T23:30:10.880Z,15.57
2022-08-10T23:32:37.245Z,15.54
2022-08-10T23:36:31.774Z,15.47
2022-08-10T23:38:00.394Z,15.40
2022-08-10T23:40:29.382Z,15.34
2022-08-10T23:42:58.605Z,15.27
2022-08-10T23:45:52.749Z,15.25
2022-08-10T23:48:21.161Z,15.27
2022-08-10T23:50:53.385Z,15.30
2022-08-10T23:53:31.105Z,15.38
2022-08-10T23:56:01.925Z,15.37
2022-08-10T23:58:38.686Z,15.29
